Time;durP1;ratioP1;P1;durP2;ratioP2;P2;SDS_P1;SDS_P2;PMS_P1;PMS_P2;Temp;Humidity;BMP_temperature;BMP_pressure;BME280_temperature;BME280_humidity;BME280_pressure;Samples;Min_cycle;Max_cycle;Signal;HPM_P1;HPM_P2
2022/02/10 00:21:36;;;;;;;19.15;18.25;;;9.30;79.00;;;;;;4918086;29;20031;-85
2022/02/10 00:34:55;;;;;;;19.35;18.45;;;9.40;79.00;;;;;;4933065;29;20055;-85
2022/02/10 00:37:35;;;;;;;19.58;18.30;;;9.40;79.00;;;;;;4935560;29;20091;-85
2022/02/10 00:40:11;;;;;;;19.58;18.67;;;9.30;79.00;;;;;;4935940;29;20028;-85
2022/02/10 00:42:37;;;;;;;19.77;18.73;;;9.30;79.00;;;;;;4936508;29;20036;-85
2022/02/10 00:45:04;;;;;;;19.63;18.63;;;9.30;79.00;;;;;;4935633;28;20070;-84
2022/02/10 00:47:39;;;;;;;20.35;19.25;;;9.30;79.00;;;;;;4921068;29;20087;-85
2022/02/10 00:50:07;;;;;;;19.98;18.77;;;9.30;79.00;;;;;;4950400;28;20052;-85
2022/02/10 00:52:36;;;;;;;19.52;18.52;;;9.30;78.90;;;;;;4935858;29;20059;-85
2022/02/10 00:55:02;;;;;;;20.02;18.92;;;9.30;78.90;;;;;;4937201;29;20139;-85
2022/02/10 00:57:28;;;;;;;20.48;19.40;;;9.40;78.90;;;;;;4962454;28;20043;-85
2022/02/10 01:10:44;;;;;;;19.95;18.75;;;9.40;78.90;;;;;;4976240;28;20402;-86
2022/02/10 01:32:03;;;;;;;20.05;19.15;;;9.30;79.00;;;;;;4975514;28;20054;-85
2022/02/10 01:34:31;;;;;;;19.65;18.65;;;9.30;79.00;;;;;;4970868;28;20046;-85
2022/02/10 01:36:57;;;;;;;18.45;17.60;;;9.30;79.00;;;;;;4977226;28;20034;-85
2022/02/10 01:39:30;;;;;;;20.23;19.23;;;9.30;78.90;;;;;;4968617;28;20046;-85
2022/02/10 01:58:35;;;;;;;17.83;17.02;;;9.40;79.70;;;;;;4964991;28;20050;-85
2022/02/10 02:03:52;;;;;;;19.58;18.58;;;9.30;78.80;;;;;;4961385;28;20030;-85
2022/02/10 02:06:24;;;;;;;19.70;18.45;;;9.40;78.90;;;;;;4960643;28;20077;-85
2022/02/10 02:08:51;;;;;;;18.00;17.20;;;9.40;78.90;;;;;;4972238;28;20027;-85
2022/02/10 02:11:17;;;;;;;19.45;18.23;;;9.40;78.90;;;;;;4962343;28;20112;-85
2022/02/10 02:13:43;;;;;;;20.00;18.92;;;9.30;78.80;;;;;;4969745;28;20482;-85
2022/02/10 02:16:09;;;;;;;18.50;17.60;;;9.40;78.90;;;;;;4973308;28;20524;-85
2022/02/10 02:18:35;;;;;;;19.63;18.63;;;9.40;78.90;;;;;;4962481;28;20031;-85
2022/02/10 02:21:01;;;;;;;18.15;17.25;;;9.40;78.90;;;;;;4960539;28;20448;-85
2022/02/10 02:23:28;;;;;;;19.00;18.10;;;9.40;78.90;;;;;;4969927;28;20031;-85
2022/02/10 02:26:11;;;;;;;18.70;17.70;;;9.40;78.90;;;;;;4946942;29;20043;-85
2022/02/10 02:28:40;;;;;;;18.30;17.35;;;9.30;78.90;;;;;;4968332;28;20043;-85
2022/02/10 02:31:11;;;;;;;19.70;18.75;;;9.40;79.00;;;;;;4968013;28;20405;-85
2022/02/10 02:36:47;;;;;;;19.38;18.48;;;9.40;79.00;;;;;;4976287;28;20050;-85
2022/02/10 02:39:26;;;;;;;20.40;19.40;;;9.40;78.90;;;;;;4967732;28;20506;-85
2022/02/10 03:07:24;;;;;;;19.75;18.63;;;9.40;78.90;;;;;;4878115;29;20126;-85
2022/02/10 03:10:06;;;;;;;20.40;19.30;;;9.30;78.90;;;;;;4873701;29;20049;-86
2022/02/10 03:12:32;;;;;;;19.23;18.33;;;9.30;78.90;;;;;;4874657;29;20048;-85
2022/02/10 03:15:01;;;;;;;19.38;18.48;;;9.30;78.90;;;;;;4858870;29;20136;-85
2022/02/10 03:17:57;;;;;;;19.17;18.17;;;9.30;79.00;;;;;;4876308;29;20373;-85
2022/02/10 04:13:56;;;;;;;18.95;18.05;;;9.30;79.00;;;;;;4960611;28;20039;-85
2022/02/10 04:16:33;;;;;;;19.73;18.83;;;9.40;79.10;;;;;;4966379;28;20042;-84
2022/02/10 04:26:55;;;;;;;20.75;19.40;;;9.40;79.10;;;;;;4965140;28;20059;-84
2022/02/10 04:30:03;;;;;;;19.63;18.73;;;9.40;79.10;;;;;;4947305;28;20043;-84
2022/02/10 05:05:09;;;;;;;20.90;19.35;;;9.40;79.20;;;;;;4965291;28;20035;-88
2022/02/10 05:18:29;;;;;;;19.23;18.30;;;9.30;79.20;;;;;;4968889;28;20031;-86
2022/02/10 05:35:23;;;;;;;18.52;17.63;;;9.30;79.40;;;;;;4804359;29;20315;-88
2022/02/10 05:37:55;;;;;;;17.92;17.02;;;9.20;79.20;;;;;;4804371;29;20035;-87
2022/02/10 05:43:35;;;;;;;20.88;19.30;;;9.20;79.30;;;;;;4761203;30;20040;-88
2022/02/10 06:02:28;;;;;;;19.25;18.13;;;9.10;79.50;;;;;;4786542;29;20067;-87
2022/02/10 07:04:36;;;;;;;18.95;18.00;;;9.10;79.60;;;;;;4896214;29;20048;-85
2022/02/10 07:50:06;;;;;;;19.05;18.15;;;9.20;79.60;;;;;;4850858;29;20429;-83
2022/02/10 08:29:02;;;;;;;19.13;18.23;;;9.40;79.50;;;;;;4900134;29;20047;-82
2022/02/10 08:49:57;;;;;;;19.08;18.08;;;9.40;79.50;;;;;;4858835;29;20064;-82
2022/02/10 09:24:44;;;;;;;20.42;19.45;;;9.80;79.40;;;;;;4964385;28;20038;-83
2022/02/10 09:58:41;;;;;;;19.60;18.70;;;10.00;79.40;;;;;;4838920;29;20037;-82
2022/02/10 10:01:22;;;;;;;20.88;19.70;;;10.00;79.40;;;;;;4838984;29;20038;-80
2022/02/10 10:04:13;;;;;;;19.55;18.60;;;10.00;79.50;;;;;;4835205;29;20152;-82
2022/02/10 10:14:20;;;;;;;19.70;18.80;;;10.00;79.40;;;;;;4837482;29;20065;-85
2022/02/10 10:16:57;;;;;;;20.90;19.83;;;10.10;79.50;;;;;;4836032;29;20049;-86
2022/02/10 10:56:02;;;;;;;18.90;18.00;;;10.10;79.80;;;;;;4874648;29;20037;-89
2022/02/10 10:58:41;;;;;;;18.77;17.88;;;10.10;79.80;;;;;;4840872;29;20076;-88
2022/02/10 11:36:52;;;;;;;19.38;18.38;;;10.30;80.00;;;;;;4963148;28;20054;-88
2022/02/10 13:32:29;;;;;;;21.60;20.33;;;10.80;80.00;;;;;;4927472;28;20223;-89
2022/02/10 14:18:29;;;;;;;22.20;21.00;;;10.40;81.10;;;;;;4977291;28;20053;-86
2022/02/10 14:28:34;;;;;;;20.63;19.52;;;10.60;80.70;;;;;;4922332;29;20722;-86
2022/02/10 14:31:04;;;;;;;19.75;18.77;;;10.60;80.70;;;;;;4914202;29;20043;-85
2022/02/10 14:33:33;;;;;;;20.83;18.98;;;10.70;80.80;;;;;;4927321;29;20047;-85
2022/02/10 15:10:52;;;;;;;19.95;18.98;;;10.90;80.50;;;;;;4924001;29;20040;-88
2022/02/10 16:17:37;;;;;;;20.17;19.23;;;11.10;80.90;;;;;;4853158;29;20032;-85
2022/02/10 16:20:07;;;;;;;21.23;20.02;;;11.10;80.80;;;;;;4875328;29;20052;-85
2022/02/10 16:22:47;;;;;;;20.13;19.23;;;11.10;81.60;;;;;;4891984;29;20387;-85
2022/02/10 16:25:16;;;;;;;20.75;19.63;;;11.10;80.90;;;;;;4891894;29;20040;-84
2022/02/10 16:27:49;;;;;;;21.15;20.05;;;11.10;80.90;;;;;;4876184;29;20052;-83
2022/02/10 16:30:15;;;;;;;20.58;19.58;;;11.10;80.90;;;;;;4889858;29;20052;-84
2022/02/10 16:32:41;;;;;;;22.15;20.95;;;11.00;80.90;;;;;;4959216;28;20505;-84
2022/02/10 16:35:11;;;;;;;22.08;20.83;;;11.00;80.90;;;;;;4966626;28;20038;-83
2022/02/10 16:37:39;;;;;;;20.58;19.58;;;11.10;81.00;;;;;;4965786;28;20389;-83
2022/02/10 16:40:06;;;;;;;20.98;19.77;;;11.10;80.90;;;;;;4965062;28;20516;-84
2022/02/10 16:42:32;;;;;;;21.13;20.13;;;11.00;80.80;;;;;;4959838;28;20041;-89
2022/02/10 16:44:58;;;;;;;21.48;20.17;;;11.00;80.90;;;;;;4951371;28;20405;-88
2022/02/10 16:47:24;;;;;;;20.02;19.10;;;11.10;81.10;;;;;;4967401;28;20042;-88
2022/02/10 16:49:53;;;;;;;21.30;19.88;;;11.10;81.00;;;;;;4949919;28;20054;-89
2022/02/10 16:52:25;;;;;;;21.67;20.58;;;11.20;80.90;;;;;;4968499;28;20050;-83
2022/02/10 16:55:02;;;;;;;22.02;20.83;;;11.20;80.80;;;;;;4966156;28;20038;-83
2022/02/10 16:57:42;;;;;;;20.63;19.63;;;11.20;80.70;;;;;;4955971;28;20027;-82
2022/02/10 17:28:41;;;;;;;19.88;18.98;;;10.60;81.50;;;;;;4972153;28;20039;-86
2022/02/10 17:33:39;;;;;;;21.02;19.98;;;10.50;81.60;;;;;;4978645;28;22589;-84
2022/02/10 17:36:11;;;;;;;20.38;19.42;;;10.50;81.60;;;;;;4971820;28;20028;-85
2022/02/10 17:42:02;;;;;;;19.98;19.08;;;10.40;81.70;;;;;;4970477;28;20401;-86
2022/02/10 17:46:58;;;;;;;22.30;21.15;;;10.30;81.60;;;;;;4968654;28;20038;-79
2022/02/10 17:52:17;;;;;;;21.85;20.75;;;10.20;81.70;;;;;;4966022;28;20085;-84
2022/02/10 17:54:44;;;;;;;22.48;21.45;;;10.10;81.60;;;;;;4970095;28;20417;-83
2022/02/10 17:57:10;;;;;;;22.20;21.10;;;10.10;81.70;;;;;;4971974;28;20031;-82
2022/02/10 17:59:36;;;;;;;23.45;21.75;;;10.10;81.70;;;;;;4970668;28;20050;-81
2022/02/10 18:02:03;;;;;;;21.70;20.70;;;10.10;81.80;;;;;;4970497;28;20046;-82
2022/02/10 18:04:29;;;;;;;22.40;21.02;;;10.00;81.80;;;;;;4969460;28;20035;-83
2022/02/10 18:06:57;;;;;;;23.20;22.00;;;10.00;81.90;;;;;;4972375;28;20054;-82
2022/02/10 18:13:04;;;;;;;22.48;21.27;;;9.90;81.90;;;;;;4971964;28;20042;-83
2022/02/10 18:15:22;;;;;;;22.20;21.05;;;9.90;81.90;;;;;;4959436;28;20035;-85
2022/02/10 18:17:56;;;;;;;20.55;19.55;;;9.80;81.90;;;;;;4973119;28;20019;-83
2022/02/10 18:20:28;;;;;;;20.30;19.30;;;9.80;81.90;;;;;;4972179;28;20030;-84
2022/02/10 18:37:46;;;;;;;20.40;19.40;;;9.70;81.90;;;;;;4970696;28;20114;-84
2022/02/10 19:08:23;;;;;;;20.73;19.73;;;9.70;81.70;;;;;;4971198;28;20408;-83
2022/02/10 19:10:55;;;;;;;19.42;18.20;;;9.70;81.60;;;;;;4971341;28;20026;-84
2022/02/10 19:13:22;;;;;;;19.80;18.70;;;9.70;81.70;;;;;;4962835;28;20039;-83
2022/02/10 19:15:50;;;;;;;18.85;17.70;;;9.70;81.70;;;;;;4965796;28;20031;-84
2022/02/10 19:18:17;;;;;;;18.95;18.05;;;9.70;81.70;;;;;;4972223;28;20043;-84
2022/02/10 19:20:43;;;;;;;19.65;18.75;;;9.70;81.80;;;;;;4972112;28;20406;-84
2022/02/10 19:23:10;;;;;;;18.70;17.80;;;9.60;81.70;;;;;;4967276;28;20027;-86
2022/02/10 19:25:37;;;;;;;17.90;17.10;;;9.70;81.90;;;;;;4958519;28;20393;-85
2022/02/10 19:28:04;;;;;;;19.60;18.60;;;9.70;81.90;;;;;;4966832;28;20490;-85
2022/02/10 19:30:32;;;;;;;19.08;18.17;;;9.70;82.00;;;;;;4946159;28;20043;-85
2022/02/10 19:33:01;;;;;;;17.88;17.08;;;9.70;81.90;;;;;;4971748;28;20042;-85
2022/02/10 19:35:30;;;;;;;18.13;17.33;;;9.60;81.90;;;;;;4968463;28;20050;-87
2022/02/10 19:37:59;;;;;;;18.88;17.98;;;9.60;81.90;;;;;;4972425;28;20041;-88
2022/02/10 19:40:27;;;;;;;18.23;17.42;;;9.50;81.90;;;;;;4969450;28;20490;-88
2022/02/10 19:42:55;;;;;;;18.70;17.80;;;9.50;82.00;;;;;;4971556;28;20047;-88
2022/02/10 19:45:21;;;;;;;19.15;18.25;;;9.40;81.90;;;;;;4939393;28;20046;-87
2022/02/10 19:47:48;;;;;;;19.27;18.38;;;9.40;82.00;;;;;;4963483;28;20023;-87
2022/02/10 19:50:16;;;;;;;17.95;17.15;;;9.40;82.10;;;;;;4970185;28;20066;-86
2022/02/10 19:52:47;;;;;;;18.23;17.33;;;9.30;82.00;;;;;;4965494;28;20039;-88
2022/02/10 19:55:18;;;;;;;18.70;17.80;;;9.30;82.00;;;;;;4932761;28;20043;-89
2022/02/10 19:57:48;;;;;;;17.90;17.10;;;9.20;81.90;;;;;;4971920;28;20039;-89
2022/02/10 20:00:19;;;;;;;18.08;17.27;;;9.20;82.00;;;;;;4972078;28;20037;-88
2022/02/10 20:02:45;;;;;;;18.27;17.40;;;9.20;82.00;;;;;;4972709;28;20046;-88
2022/02/10 20:05:11;;;;;;;18.73;17.83;;;9.10;81.90;;;;;;4972005;28;20039;-87
2022/02/10 20:07:38;;;;;;;17.60;16.80;;;9.10;82.00;;;;;;4969984;28;20034;-84
2022/02/10 20:10:05;;;;;;;17.73;16.92;;;9.10;82.10;;;;;;4971788;28;20055;-84
2022/02/10 20:12:31;;;;;;;16.63;15.82;;;9.10;82.10;;;;;;4967046;28;20034;-81
2022/02/10 20:14:57;;;;;;;17.58;16.77;;;9.10;82.00;;;;;;4956964;28;20035;-84
2022/02/10 20:17:23;;;;;;;17.13;16.33;;;9.10;82.00;;;;;;4966811;28;20087;-83
2022/02/10 20:19:49;;;;;;;18.02;17.23;;;9.10;82.00;;;;;;4952329;28;20043;-83
2022/02/10 20:22:16;;;;;;;18.58;17.70;;;9.10;81.90;;;;;;4952214;28;20049;-83
2022/02/10 20:24:42;;;;;;;17.30;16.50;;;9.00;81.90;;;;;;4970554;28;20047;-83
2022/02/10 20:27:08;;;;;;;17.77;16.92;;;9.00;81.80;;;;;;4972052;28;20466;-83
2022/02/10 20:29:34;;;;;;;17.75;16.95;;;9.00;81.90;;;;;;4967999;28;20051;-83
2022/02/10 20:32:00;;;;;;;17.00;16.20;;;9.00;81.80;;;;;;4971681;28;20429;-83
2022/02/10 20:34:29;;;;;;;17.88;17.08;;;9.00;81.90;;;;;;4972108;28;20038;-83
2022/02/10 20:36:57;;;;;;;17.42;16.63;;;8.90;81.80;;;;;;4960473;28;20046;-83
2022/02/10 20:39:27;;;;;;;17.63;16.83;;;8.90;81.90;;;;;;4967719;28;20031;-84
2022/02/10 20:42:00;;;;;;;16.80;16.00;;;8.90;81.80;;;;;;4970559;28;20035;-88
2022/02/10 20:44:27;;;;;;;17.30;16.50;;;8.90;81.70;;;;;;4964514;28;20042;-86
2022/02/10 20:46:53;;;;;;;17.52;16.73;;;8.90;81.80;;;;;;4965043;28;20039;-86
2022/02/10 20:49:22;;;;;;;17.27;16.48;;;8.90;81.80;;;;;;4966896;28;20541;-87
2022/02/10 20:51:51;;;;;;;17.33;16.52;;;8.90;81.70;;;;;;4972928;28;20035;-86
2022/02/10 20:54:17;;;;;;;17.65;16.85;;;8.90;81.80;;;;;;4973587;28;20043;-86
2022/02/10 20:56:45;;;;;;;16.73;15.93;;;8.80;81.70;;;;;;4972247;28;20031;-86
2022/02/10 21:02:13;;;;;;;17.83;17.02;;;8.80;81.70;;;;;;4975570;28;20042;-86
2022/02/10 21:04:51;;;;;;;18.13;17.27;;;8.80;81.60;;;;;;4970419;28;20038;-86
2022/02/10 21:12:15;;;;;;;16.20;15.45;;;8.80;81.60;;;;;;4975331;28;20053;-86
2022/02/10 21:14:43;;;;;;;18.00;17.20;;;8.70;81.60;;;;;;4974401;28;20047;-87
2022/02/10 21:17:12;;;;;;;16.92;16.13;;;8.70;81.60;;;;;;4962818;28;20058;-85
2022/02/10 21:19:38;;;;;;;17.58;16.77;;;8.70;81.60;;;;;;4964084;28;20042;-86
2022/02/10 21:22:15;;;;;;;17.90;17.00;;;8.80;81.60;;;;;;4972742;28;20378;-87
2022/02/10 21:24:47;;;;;;;17.30;16.50;;;8.70;81.50;;;;;;4960951;28;20040;-88
2022/02/10 21:30:06;;;;;;;18.00;17.20;;;8.70;81.50;;;;;;4981380;28;20490;-86
2022/02/10 21:32:37;;;;;;;17.35;16.55;;;8.70;81.60;;;;;;4967376;28;20046;-87
2022/02/10 21:35:18;;;;;;;19.10;18.10;;;8.60;81.60;;;;;;4973565;28;20047;-87
2022/02/10 21:37:58;;;;;;;18.08;17.27;;;8.60;81.60;;;;;;4967714;28;20375;-86
2022/02/10 21:54:31;;;;;;;17.63;16.73;;;8.50;81.60;;;;;;4976035;28;20039;-88
2022/02/10 22:09:41;;;;;;;17.73;16.92;;;8.50;81.50;;;;;;4962852;28;20053;-86
2022/02/10 22:16:21;;;;;;;17.85;17.05;;;8.50;81.40;;;;;;4971946;28;20042;-86
2022/02/10 22:23:19;;;;;;;17.35;16.55;;;8.40;81.40;;;;;;4966915;28;20046;-86
2022/02/10 22:25:46;;;;;;;17.75;16.95;;;8.40;81.40;;;;;;4962705;28;20035;-87
2022/02/10 22:31:20;;;;;;;17.77;16.98;;;8.30;81.40;;;;;;4977523;28;20504;-86
2022/02/10 22:36:20;;;;;;;16.92;16.13;;;8.20;81.40;;;;;;4975761;28;20046;-87
2022/02/10 22:38:48;;;;;;;16.25;15.55;;;8.20;81.50;;;;;;4962892;28;20362;-86
2022/02/10 22:41:15;;;;;;;17.55;16.75;;;8.10;81.50;;;;;;4971708;28;20034;-86
2022/02/10 22:43:47;;;;;;;17.45;16.65;;;8.10;81.50;;;;;;4967606;28;20394;-85
2022/02/10 22:46:13;;;;;;;17.50;16.70;;;8.10;81.60;;;;;;4963600;28;20050;-85
2022/02/10 22:48:44;;;;;;;17.00;16.20;;;8.00;81.50;;;;;;4973735;28;20031;-86
2022/02/10 22:51:14;;;;;;;16.98;16.17;;;8.00;81.60;;;;;;4972371;28;20047;-87
2022/02/10 22:53:40;;;;;;;17.40;16.60;;;8.00;81.70;;;;;;4949670;29;20031;-86
2022/02/10 22:56:10;;;;;;;17.23;16.42;;;8.00;81.60;;;;;;4971374;28;20038;-86
2022/02/10 22:58:38;;;;;;;17.30;16.50;;;8.00;81.60;;;;;;4972206;28;20027;-86
2022/02/10 23:01:07;;;;;;;17.60;16.70;;;8.00;81.50;;;;;;4972146;28;20530;-85
2022/02/10 23:03:33;;;;;;;16.90;16.10;;;8.00;81.60;;;;;;4973766;28;20038;-86
2022/02/10 23:05:59;;;;;;;17.45;16.65;;;8.00;81.60;;;;;;4974244;28;20046;-87
2022/02/10 23:08:25;;;;;;;17.35;16.55;;;7.90;81.50;;;;;;4967359;28;20031;-86
2022/02/10 23:10:52;;;;;;;16.73;15.93;;;7.90;81.60;;;;;;4956519;28;20039;-86
2022/02/10 23:13:21;;;;;;;17.50;16.70;;;7.90;81.70;;;;;;4972746;28;20050;-87
2022/02/10 23:15:47;;;;;;;17.38;16.58;;;7.90;81.70;;;;;;4970108;28;20034;-86
2022/02/10 23:18:18;;;;;;;17.63;16.73;;;7.80;81.60;;;;;;4971662;28;20027;-86
2022/02/10 23:20:44;;;;;;;16.23;15.53;;;7.70;81.60;;;;;;4972107;28;20037;-86
2022/02/10 23:23:11;;;;;;;16.13;15.43;;;7.70;81.60;;;;;;4967303;28;20042;-87
2022/02/10 23:25:38;;;;;;;17.00;16.20;;;7.70;81.60;;;;;;4967031;28;20018;-86
2022/02/10 23:28:06;;;;;;;16.83;16.02;;;7.70;81.70;;;;;;4971743;28;20031;-86
2022/02/10 23:30:32;;;;;;;16.73;15.93;;;7.60;81.70;;;;;;4968620;28;20039;-85
2022/02/10 23:33:06;;;;;;;16.77;15.97;;;7.60;81.70;;;;;;4973753;28;20411;-86
2022/02/10 23:38:20;;;;;;;16.93;16.13;;;7.60;81.80;;;;;;4970636;28;20517;-86
2022/02/10 23:43:21;;;;;;;17.20;16.40;;;7.50;81.70;;;;;;4975600;28;20406;-85
2022/02/10 23:45:47;;;;;;;16.97;16.17;;;7.50;81.70;;;;;;4972323;28;20051;-86
2022/02/10 23:48:13;;;;;;;18.10;17.20;;;7.50;81.90;;;;;;4973732;28;20035;-86
2022/02/10 23:50:39;;;;;;;18.37;17.47;;;7.50;81.90;;;;;;4972494;28;20050;-85
2022/02/10 23:53:05;;;;;;;17.73;16.93;;;7.50;81.90;;;;;;4971125;28;20043;-85
2022/02/10 23:55:35;;;;;;;18.27;17.47;;;7.50;81.90;;;;;;4971421;28;20031;-86
2022/02/10 23:58:32;;;;;;;18.00;17.20;;;7.50;81.90;;;;;;4971959;28;20058;-86
